Big Bear Station Historical Data
Daily Summary for May 11, 2019 Units:  English    Metric   Both
Next Day »
Daily Weekly Monthly Yearly Custom
  High: Low: Average:
Temperature: 59 °F 37.9 °F 47 °F
Dew Point: 46.4 °F 36.9 °F 41.4 °F
Humidity: 99% 52% 83%
Wind Speed: 10.9mph 0mph 1.3mph
Wind Gust: -999mph - -
Wind- - SW
Pressure: 23.47 in 23.39 in -
Precipitation: 0.07 in    
Historical Graphs
 
 
Tabular Data for May 11, 2019
Time Temperature Dew Point Pressure Wind Wind Speed Wind Gust Humidity Rainfall Rate (Hourly)
00:12 42.3 °F 41.5 °F 23.40 in Calm   -999 mph 97% 0.00 in
00:28 42.1 °F 41.3 °F 23.40 in Calm   -999 mph 97% 0.00 in
00:43 41.7 °F 40.9 °F 23.40 in Calm   -999 mph 97% 0.00 in
00:58 41.7 °F 40.9 °F 23.40 in Calm   -999 mph 97% 0.00 in
01:13 41.2 °F 40.4 °F 23.40 in Calm   -999 mph 97% 0.00 in
01:28 40.6 °F 39.8 °F 23.40 in Calm   -999 mph 97% 0.00 in
01:44 39.9 °F 39.4 °F 23.40 in Calm   -999 mph 98% 0.00 in
01:59 39.2 °F 38.7 °F 23.40 in Calm   -999 mph 98% 0.00 in
02:14 38.8 °F 38.3 °F 23.40 in Calm   -999 mph 98% 0.00 in
02:29 38.5 °F 38 °F 23.40 in Calm   -999 mph 98% 0.00 in
02:45 38.3 °F 38 °F 23.39 in Calm   -999 mph 99% 0.00 in
03:00 37.9 °F 37.6 °F 23.39 in Calm   -999 mph 99% 0.00 in
03:15 37.9 °F 37.6 °F 23.40 in Calm   -999 mph 99% 0.00 in
03:30 38.5 °F 38.2 °F 23.40 in Calm   -999 mph 99% 0.00 in
03:45 38.8 °F 38.5 °F 23.40 in Calm   -999 mph 99% 0.00 in
04:01 38.7 °F 38.4 °F 23.40 in Calm   -999 mph 99% 0.00 in
04:16 39.2 °F 38.9 °F 23.40 in Calm   -999 mph 99% 0.00 in
04:31 39.7 °F 39.4 °F 23.40 in Calm   -999 mph 99% 0.00 in
04:46 39.9 °F 39.6 °F 23.40 in Calm   -999 mph 99% 0.00 in
05:01 40.8 °F 40.5 °F 23.40 in Calm   -999 mph 99% 0.00 in
05:17 41 °F 40.7 °F 23.40 in Calm   -999 mph 99% 0.00 in
05:32 41 °F 40.7 °F 23.40 in Calm   -999 mph 99% 0.00 in
05:47 41.2 °F 40.9 °F 23.40 in Calm   -999 mph 99% 0.00 in
06:02 41.4 °F 41.1 °F 23.40 in Calm   -999 mph 99% 0.00 in
06:17 41.7 °F 41.4 °F 23.41 in Calm   -999 mph 99% 0.00 in
06:33 42.4 °F 42.1 °F 23.41 in Calm   -999 mph 99% 0.00 in
06:48 42.6 °F 42.3 °F 23.41 in Calm   -999 mph 99% 0.00 in
07:03 42.4 °F 42.1 °F 23.41 in Calm   -999 mph 99% 0.00 in
07:18 42.8 °F 42.5 °F 23.42 in Calm   -999 mph 99% 0.00 in
07:33 43.2 °F 42.9 °F 23.42 in Calm   -999 mph 99% 0.00 in
07:49 44.2 °F 43.9 °F 23.42 in Calm   -999 mph 99% 0.00 in
08:04 45.5 °F 44.7 °F 23.42 in Calm   -999 mph 97% 0.00 in
08:19 46 °F 44.4 °F 23.42 in Calm   -999 mph 94% 0.00 in
08:34 46.6 °F 44.4 °F 23.42 in Calm   -999 mph 92% 0.00 in
08:49 47.1 °F 44 °F 23.42 in Calm   -999 mph 89% 0.00 in
09:05 48 °F 44.6 °F 23.43 in Calm   -999 mph 88% 0.00 in
09:20 49.3 °F 45.9 °F 23.43 in Calm   -999 mph 88% 0.00 in
09:35 50 °F 45.4 °F 23.43 in NNW 4.7 mph -999 mph 84% 0.00 in
09:50 49.5 °F 43.9 °F 23.43 in NW 5.8 mph -999 mph 81% 0.00 in
10:06 49.5 °F 44.6 °F 23.44 in Calm   -999 mph 83% 0.00 in
10:21 47.8 °F 44.1 °F 23.45 in ENE 3.7 mph -999 mph 87% 0.00 in
10:36 46 °F 42.6 °F 23.45 in Calm   -999 mph 88% 0.00 in
10:51 46 °F 43.2 °F 23.45 in North 1.1 mph -999 mph 90% 0.00 in
11:06 49.5 °F 45.8 °F 23.45 in North 10.9 mph -999 mph 87% 0.00 in
11:22 51.3 °F 45.7 °F 23.45 in NW 3.7 mph -999 mph 81% 0.00 in
11:37 51.8 °F 45.5 °F 23.45 in NNW 5.3 mph -999 mph 79% 0.00 in
11:52 52.3 °F 45.3 °F 23.45 in NNW 3.7 mph -999 mph 77% 0.00 in
12:07 54.1 °F 46.4 °F 23.45 in ENE 1.7 mph -999 mph 75% 0.00 in
12:22 55.2 °F 46.3 °F 23.45 in WNW 3.7 mph -999 mph 72% 0.00 in
12:38 54.9 °F 45.3 °F 23.44 in NE 4.7 mph -999 mph 70% 0.00 in
12:53 56.7 °F 45.9 °F 23.44 in ESE 5.3 mph -999 mph 67% 0.00 in
13:09 57.4 °F 44.1 °F 23.44 in WSW 1.7 mph -999 mph 61% 0.00 in
13:24 57.7 °F 43.5 °F 23.44 in WNW 5.3 mph -999 mph 59% 0.00 in
13:39 58.8 °F 42.7 °F 23.44 in NNE 6.3 mph -999 mph 55% 0.00 in
13:54 59 °F 41.4 °F 23.44 in NE 2.2 mph -999 mph 52% 0.00 in
14:10 58.5 °F 40.9 °F 23.44 in WSW 5.3 mph -999 mph 52% 0.00 in
14:25 57.7 °F 41.2 °F 23.44 in Calm   -999 mph 54% 0.00 in
14:40 56.3 °F 41.7 °F 23.44 in West 2.7 mph -999 mph 58% 0.00 in
14:55 55.9 °F 42.2 °F 23.43 in NW 5.3 mph -999 mph 60% 0.00 in
15:11 55 °F 42.2 °F 23.43 in NE 2.2 mph -999 mph 62% 0.00 in
15:26 54.9 °F 42.5 °F 23.43 in WNW 2.7 mph -999 mph 63% 0.00 in
15:42 57.6 °F 43.4 °F 23.42 in NW 5.3 mph -999 mph 59% 0.00 in
15:58 57.2 °F 43.4 °F 23.42 in NNW 6.8 mph -999 mph 60% 0.00 in
16:13 54.7 °F 43.2 °F 23.42 in NNW 4.7 mph -999 mph 65% 0.00 in
16:28 52.2 °F 43.1 °F 23.43 in WSW 4.7 mph -999 mph 71% 0.00 in
16:43 50.7 °F 44.8 °F 23.43 in ESE 2.7 mph -999 mph 80% 0.00 in
16:58 50.7 °F 44.1 °F 23.42 in NE 1.1 mph -999 mph 78% 0.00 in
17:14 50.4 °F 42.8 °F 23.43 in North 3.2 mph -999 mph 75% 0.00 in
17:29 51.3 °F 42.2 °F 23.42 in Calm   -999 mph 71% 0.00 in
17:44 55.9 °F 44.7 °F 23.42 in SE 2.2 mph -999 mph 66% 0.00 in
17:59 58.3 °F 43.6 °F 23.42 in NW 1.1 mph -999 mph 58% 0.00 in
18:15 57.9 °F 42.3 °F 23.42 in Calm   -999 mph 56% 0.00 in
18:30 58.3 °F 41.2 °F 23.42 in ENE 2.2 mph -999 mph 53% 0.00 in
18:45 56.7 °F 40.2 °F 23.43 in Calm   -999 mph 54% 0.00 in
19:00 56.8 °F 40.3 °F 23.43 in Calm   -999 mph 54% 0.00 in
19:16 54.3 °F 39.4 °F 23.44 in Calm   -999 mph 57% 0.00 in
19:31 50.5 °F 38.8 °F 23.44 in Calm   -999 mph 64% 0.00 in
19:46 48.4 °F 38.3 °F 23.44 in Calm   -999 mph 68% 0.00 in
20:01 46.6 °F 39.4 °F 23.45 in Calm   -999 mph 76% 0.00 in
20:16 45.9 °F 38.8 °F 23.45 in Calm   -999 mph 76% 0.00 in
20:32 45 °F 39.2 °F 23.45 in Calm   -999 mph 80% 0.00 in
20:47 44.1 °F 39 °F 23.46 in Calm   -999 mph 82% 0.00 in
21:02 43.5 °F 38.7 °F 23.46 in Calm   -999 mph 83% 0.00 in
21:17 42.6 °F 38.4 °F 23.46 in Calm   -999 mph 85% 0.00 in
21:32 42.3 °F 38.4 °F 23.47 in Calm   -999 mph 86% 0.00 in
21:48 41.9 °F 38.3 °F 23.47 in Calm   -999 mph 87% 0.00 in
22:03 41.4 °F 37.8 °F 23.47 in Calm   -999 mph 87% 0.00 in
22:18 40.6 °F 37.3 °F 23.47 in Calm   -999 mph 88% 0.00 in
22:33 40.3 °F 37.3 °F 23.47 in Calm   -999 mph 89% 0.00 in
22:48 40.1 °F 37.1 °F 23.47 in Calm   -999 mph 89% 0.00 in
23:04 39.7 °F 37 °F 23.47 in Calm   -999 mph 90% 0.00 in
23:19 39.6 °F 36.9 °F 23.47 in Calm   -999 mph 90% 0.00 in
23:34 39.6 °F 36.9 °F 23.47 in Calm   -999 mph 90% 0.00 in
23:49 39.4 °F 37 °F 23.47 in Calm   -999 mph 91% 0.00 in
Big Bear CA Weather